sensor_id;sensor_type;location;lat;lon;timestamp;P1;durP1;ratioP1;P2;durP2;ratioP2
21162;SDS011;10739;52.198;20.908;2022-11-25T00:03:45;107.90;;;37.13;;
21162;SDS011;10739;52.198;20.908;2022-11-25T00:06:14;100.70;;;35.47;;
21162;SDS011;10739;52.198;20.908;2022-11-25T00:08:43;106.70;;;37.03;;
21162;SDS011;10739;52.198;20.908;2022-11-25T00:11:12;110.15;;;36.42;;
21162;SDS011;10739;52.198;20.908;2022-11-25T00:13:40;117.57;;;37.03;;
21162;SDS011;10739;52.198;20.908;2022-11-25T00:16:09;104.00;;;34.15;;
21162;SDS011;10739;52.198;20.908;2022-11-25T00:18:39;103.88;;;35.30;;
21162;SDS011;10739;52.198;20.908;2022-11-25T00:21:11;107.75;;;36.17;;
21162;SDS011;10739;52.198;20.908;2022-11-25T00:23:41;102.88;;;35.33;;
21162;SDS011;10739;52.198;20.908;2022-11-25T00:26:09;104.30;;;35.08;;
21162;SDS011;10739;52.198;20.908;2022-11-25T00:28:41;110.57;;;37.10;;
21162;SDS011;10739;52.198;20.908;2022-11-25T00:33:40;107.68;;;36.00;;
21162;SDS011;10739;52.198;20.908;2022-11-25T00:36:12;101.25;;;34.08;;
21162;SDS011;10739;52.198;20.908;2022-11-25T00:38:58;106.03;;;35.15;;
21162;SDS011;10739;52.198;20.908;2022-11-25T00:41:27;119.53;;;37.03;;
21162;SDS011;10739;52.198;20.908;2022-11-25T00:44:13;103.57;;;36.50;;
21162;SDS011;10739;52.198;20.908;2022-11-25T00:47:00;112.88;;;36.60;;
21162;SDS011;10739;52.198;20.908;2022-11-25T00:49:33;108.97;;;35.00;;
21162;SDS011;10739;52.198;20.908;2022-11-25T00:52:02;121.38;;;38.40;;
21162;SDS011;10739;52.198;20.908;2022-11-25T00:54:29;127.13;;;34.25;;
21162;SDS011;10739;52.198;20.908;2022-11-25T00:56:56;118.10;;;37.03;;
21162;SDS011;10739;52.198;20.908;2022-11-25T00:59:22;116.63;;;37.25;;
21162;SDS011;10739;52.198;20.908;2022-11-25T01:01:49;126.72;;;36.90;;
21162;SDS011;10739;52.198;20.908;2022-11-25T01:04:15;119.70;;;36.70;;
21162;SDS011;10739;52.198;20.908;2022-11-25T01:06:42;124.38;;;37.47;;
21162;SDS011;10739;52.198;20.908;2022-11-25T01:09:09;123.65;;;38.72;;
21162;SDS011;10739;52.198;20.908;2022-11-25T01:11:37;121.05;;;35.95;;
21162;SDS011;10739;52.198;20.908;2022-11-25T01:14:05;115.30;;;35.55;;
21162;SDS011;10739;52.198;20.908;2022-11-25T01:16:33;134.32;;;36.95;;
21162;SDS011;10739;52.198;20.908;2022-11-25T01:19:00;117.68;;;36.42;;
21162;SDS011;10739;52.198;20.908;2022-11-25T01:21:28;122.55;;;36.42;;
21162;SDS011;10739;52.198;20.908;2022-11-25T01:23:57;110.90;;;35.67;;
21162;SDS011;10739;52.198;20.908;2022-11-25T01:26:26;122.00;;;36.10;;
21162;SDS011;10739;52.198;20.908;2022-11-25T01:28:57;113.13;;;35.67;;
21162;SDS011;10739;52.198;20.908;2022-11-25T01:31:29;137.93;;;35.83;;
21162;SDS011;10739;52.198;20.908;2022-11-25T01:34:05;127.68;;;36.78;;
21162;SDS011;10739;52.198;20.908;2022-11-25T01:36:37;138.27;;;36.47;;
21162;SDS011;10739;52.198;20.908;2022-11-25T01:39:04;124.65;;;35.80;;
21162;SDS011;10739;52.198;20.908;2022-11-25T01:41:31;124.68;;;37.53;;
21162;SDS011;10739;52.198;20.908;2022-11-25T01:49:44;134.98;;;37.28;;
21162;SDS011;10739;52.198;20.908;2022-11-25T01:54:54;138.77;;;40.10;;
21162;SDS011;10739;52.198;20.908;2022-11-25T01:57:37;134.13;;;37.00;;
21162;SDS011;10739;52.198;20.908;2022-11-25T02:00:10;138.77;;;38.15;;
21162;SDS011;10739;52.198;20.908;2022-11-25T02:02:37;119.88;;;35.55;;
21162;SDS011;10739;52.198;20.908;2022-11-25T02:05:07;119.55;;;36.85;;
21162;SDS011;10739;52.198;20.908;2022-11-25T02:07:40;132.00;;;40.08;;
21162;SDS011;10739;52.198;20.908;2022-11-25T02:10:11;128.35;;;38.03;;
21162;SDS011;10739;52.198;20.908;2022-11-25T02:12:44;116.53;;;36.33;;
21162;SDS011;10739;52.198;20.908;2022-11-25T02:15:12;133.00;;;40.28;;
21162;SDS011;10739;52.198;20.908;2022-11-25T02:17:40;112.63;;;34.72;;
21162;SDS011;10739;52.198;20.908;2022-11-25T02:25:50;95.43;;;30.80;;
21162;SDS011;10739;52.198;20.908;2022-11-25T02:28:21;91.70;;;30.63;;
21162;SDS011;10739;52.198;20.908;2022-11-25T02:30:51;89.78;;;31.55;;
21162;SDS011;10739;52.198;20.908;2022-11-25T02:33:18;96.13;;;31.13;;
21162;SDS011;10739;52.198;20.908;2022-11-25T02:35:55;100.07;;;31.50;;
21162;SDS011;10739;52.198;20.908;2022-11-25T02:38:59;88.95;;;31.58;;
21162;SDS011;10739;52.198;20.908;2022-11-25T02:41:28;94.05;;;31.98;;
21162;SDS011;10739;52.198;20.908;2022-11-25T02:44:07;89.05;;;31.23;;
21162;SDS011;10739;52.198;20.908;2022-11-25T02:46:33;108.55;;;32.25;;
21162;SDS011;10739;52.198;20.908;2022-11-25T02:49:01;103.45;;;33.42;;
21162;SDS011;10739;52.198;20.908;2022-11-25T02:51:29;106.30;;;33.15;;
21162;SDS011;10739;52.198;20.908;2022-11-25T02:53:57;104.10;;;33.47;;
21162;SDS011;10739;52.198;20.908;2022-11-25T02:56:26;99.38;;;33.83;;
21162;SDS011;10739;52.198;20.908;2022-11-25T02:58:56;96.30;;;34.40;;
21162;SDS011;10739;52.198;20.908;2022-11-25T03:01:22;109.60;;;36.35;;
21162;SDS011;10739;52.198;20.908;2022-11-25T03:03:48;100.82;;;34.63;;
21162;SDS011;10739;52.198;20.908;2022-11-25T03:06:14;109.32;;;34.72;;
21162;SDS011;10739;52.198;20.908;2022-11-25T03:08:41;112.53;;;36.42;;
21162;SDS011;10739;52.198;20.908;2022-11-25T03:11:07;105.22;;;35.13;;
21162;SDS011;10739;52.198;20.908;2022-11-25T03:13:34;104.07;;;35.42;;
21162;SDS011;10739;52.198;20.908;2022-11-25T03:16:00;108.22;;;36.03;;
21162;SDS011;10739;52.198;20.908;2022-11-25T03:18:26;105.05;;;35.38;;
21162;SDS011;10739;52.198;20.908;2022-11-25T03:20:53;104.18;;;37.67;;
21162;SDS011;10739;52.198;20.908;2022-11-25T03:23:21;108.10;;;36.05;;
21162;SDS011;10739;52.198;20.908;2022-11-25T03:25:48;111.55;;;38.03;;
21162;SDS011;10739;52.198;20.908;2022-11-25T03:28:14;115.95;;;37.20;;
21162;SDS011;10739;52.198;20.908;2022-11-25T03:30:40;107.35;;;38.25;;
21162;SDS011;10739;52.198;20.908;2022-11-25T03:33:07;100.43;;;35.97;;
21162;SDS011;10739;52.198;20.908;2022-11-25T03:35:34;111.35;;;40.13;;
21162;SDS011;10739;52.198;20.908;2022-11-25T03:38:00;115.72;;;37.50;;
21162;SDS011;10739;52.198;20.908;2022-11-25T03:40:26;123.32;;;38.10;;
21162;SDS011;10739;52.198;20.908;2022-11-25T03:42:52;118.07;;;38.38;;
21162;SDS011;10739;52.198;20.908;2022-11-25T03:45:18;104.30;;;37.08;;
21162;SDS011;10739;52.198;20.908;2022-11-25T03:47:45;110.20;;;37.90;;
21162;SDS011;10739;52.198;20.908;2022-11-25T03:50:12;120.13;;;39.10;;
21162;SDS011;10739;52.198;20.908;2022-11-25T03:52:40;112.68;;;38.13;;
21162;SDS011;10739;52.198;20.908;2022-11-25T03:55:06;106.10;;;36.45;;
21162;SDS011;10739;52.198;20.908;2022-11-25T03:57:33;107.22;;;37.00;;
21162;SDS011;10739;52.198;20.908;2022-11-25T03:59:59;99.45;;;35.63;;
21162;SDS011;10739;52.198;20.908;2022-11-25T04:02:26;102.38;;;36.25;;
21162;SDS011;10739;52.198;20.908;2022-11-25T04:04:52;104.68;;;35.97;;
21162;SDS011;10739;52.198;20.908;2022-11-25T04:07:18;104.97;;;36.05;;
21162;SDS011;10739;52.198;20.908;2022-11-25T04:09:44;102.03;;;35.47;;
21162;SDS011;10739;52.198;20.908;2022-11-25T04:12:11;108.93;;;37.20;;
21162;SDS011;10739;52.198;20.908;2022-11-25T04:14:56;99.20;;;35.85;;
21162;SDS011;10739;52.198;20.908;2022-11-25T04:17:22;111.95;;;37.97;;
21162;SDS011;10739;52.198;20.908;2022-11-25T04:19:48;104.40;;;38.15;;
21162;SDS011;10739;52.198;20.908;2022-11-25T04:22:14;99.28;;;35.58;;
21162;SDS011;10739;52.198;20.908;2022-11-25T04:24:41;102.05;;;37.22;;
21162;SDS011;10739;52.198;20.908;2022-11-25T04:27:07;109.53;;;36.53;;
21162;SDS011;10739;52.198;20.908;2022-11-25T04:29:33;106.97;;;36.17;;
21162;SDS011;10739;52.198;20.908;2022-11-25T04:31:59;97.72;;;35.88;;
21162;SDS011;10739;52.198;20.908;2022-11-25T04:34:25;100.93;;;36.25;;
21162;SDS011;10739;52.198;20.908;2022-11-25T04:36:51;99.50;;;34.95;;
21162;SDS011;10739;52.198;20.908;2022-11-25T04:39:17;111.93;;;36.03;;
21162;SDS011;10739;52.198;20.908;2022-11-25T04:41:44;107.60;;;35.15;;
21162;SDS011;10739;52.198;20.908;2022-11-25T04:44:10;112.35;;;35.88;;
21162;SDS011;10739;52.198;20.908;2022-11-25T04:46:37;94.55;;;32.90;;
21162;SDS011;10739;52.198;20.908;2022-11-25T04:49:06;101.40;;;32.53;;
21162;SDS011;10739;52.198;20.908;2022-11-25T04:51:33;99.90;;;34.30;;
21162;SDS011;10739;52.198;20.908;2022-11-25T04:53:59;85.47;;;30.17;;
21162;SDS011;10739;52.198;20.908;2022-11-25T04:56:26;98.50;;;31.20;;
21162;SDS011;10739;52.198;20.908;2022-11-25T04:58:52;96.78;;;31.20;;
21162;SDS011;10739;52.198;20.908;2022-11-25T05:01:37;91.88;;;29.30;;
21162;SDS011;10739;52.198;20.908;2022-11-25T05:04:03;103.38;;;32.15;;
21162;SDS011;10739;52.198;20.908;2022-11-25T05:06:29;92.68;;;30.23;;
21162;SDS011;10739;52.198;20.908;2022-11-25T05:08:56;105.40;;;31.25;;
21162;SDS011;10739;52.198;20.908;2022-11-25T05:11:22;95.18;;;32.33;;
21162;SDS011;10739;52.198;20.908;2022-11-25T05:13:48;98.45;;;31.38;;
21162;SDS011;10739;52.198;20.908;2022-11-25T05:16:14;97.13;;;33.40;;
21162;SDS011;10739;52.198;20.908;2022-11-25T05:18:40;99.72;;;31.83;;
21162;SDS011;10739;52.198;20.908;2022-11-25T05:21:06;84.88;;;30.88;;
21162;SDS011;10739;52.198;20.908;2022-11-25T05:23:32;92.90;;;30.35;;
21162;SDS011;10739;52.198;20.908;2022-11-25T05:26:02;98.10;;;30.35;;
21162;SDS011;10739;52.198;20.908;2022-11-25T05:28:29;90.90;;;30.00;;
21162;SDS011;10739;52.198;20.908;2022-11-25T05:30:56;96.50;;;30.75;;
21162;SDS011;10739;52.198;20.908;2022-11-25T05:33:22;90.13;;;30.40;;
21162;SDS011;10739;52.198;20.908;2022-11-25T05:35:52;90.30;;;31.52;;
21162;SDS011;10739;52.198;20.908;2022-11-25T05:38:24;95.85;;;30.05;;
21162;SDS011;10739;52.198;20.908;2022-11-25T05:40:52;90.15;;;29.13;;
21162;SDS011;10739;52.198;20.908;2022-11-25T05:43:29;81.57;;;28.80;;
21162;SDS011;10739;52.198;20.908;2022-11-25T05:45:56;84.35;;;28.35;;
21162;SDS011;10739;52.198;20.908;2022-11-25T05:48:22;101.68;;;32.03;;
21162;SDS011;10739;52.198;20.908;2022-11-25T05:50:48;100.55;;;31.33;;
21162;SDS011;10739;52.198;20.908;2022-11-25T05:53:14;91.15;;;31.27;;
21162;SDS011;10739;52.198;20.908;2022-11-25T05:55:48;108.38;;;34.30;;
21162;SDS011;10739;52.198;20.908;2022-11-25T05:58:30;97.05;;;33.63;;
21162;SDS011;10739;52.198;20.908;2022-11-25T06:00:57;94.00;;;32.35;;
21162;SDS011;10739;52.198;20.908;2022-11-25T06:03:24;96.75;;;33.88;;
21162;SDS011;10739;52.198;20.908;2022-11-25T06:05:54;91.47;;;31.92;;
21162;SDS011;10739;52.198;20.908;2022-11-25T06:08:21;108.32;;;34.75;;
21162;SDS011;10739;52.198;20.908;2022-11-25T06:10:47;98.70;;;33.17;;
21162;SDS011;10739;52.198;20.908;2022-11-25T06:13:13;104.78;;;33.25;;
21162;SDS011;10739;52.198;20.908;2022-11-25T06:15:40;101.47;;;35.58;;
21162;SDS011;10739;52.198;20.908;2022-11-25T06:18:09;112.13;;;34.97;;
21162;SDS011;10739;52.198;20.908;2022-11-25T06:20:37;96.10;;;31.35;;
21162;SDS011;10739;52.198;20.908;2022-11-25T06:23:04;96.05;;;34.08;;
21162;SDS011;10739;52.198;20.908;2022-11-25T06:25:31;97.95;;;33.42;;
21162;SDS011;10739;52.198;20.908;2022-11-25T06:27:58;96.95;;;33.00;;
21162;SDS011;10739;52.198;20.908;2022-11-25T06:30:24;98.88;;;33.00;;
21162;SDS011;10739;52.198;20.908;2022-11-25T06:32:52;99.68;;;33.33;;
21162;SDS011;10739;52.198;20.908;2022-11-25T06:35:19;105.68;;;36.58;;
21162;SDS011;10739;52.198;20.908;2022-11-25T06:37:46;116.45;;;35.97;;
21162;SDS011;10739;52.198;20.908;2022-11-25T06:40:12;108.78;;;37.25;;
21162;SDS011;10739;52.198;20.908;2022-11-25T06:42:38;97.68;;;35.97;;
21162;SDS011;10739;52.198;20.908;2022-11-25T06:45:09;94.57;;;33.08;;
21162;SDS011;10739;52.198;20.908;2022-11-25T06:47:36;100.30;;;34.05;;
21162;SDS011;10739;52.198;20.908;2022-11-25T06:50:02;101.85;;;37.22;;
21162;SDS011;10739;52.198;20.908;2022-11-25T06:52:29;107.00;;;35.05;;
21162;SDS011;10739;52.198;20.908;2022-11-25T06:54:56;105.60;;;37.80;;
21162;SDS011;10739;52.198;20.908;2022-11-25T06:57:22;105.28;;;37.10;;
21162;SDS011;10739;52.198;20.908;2022-11-25T06:59:48;102.18;;;36.53;;
21162;SDS011;10739;52.198;20.908;2022-11-25T07:02:15;100.25;;;35.53;;
21162;SDS011;10739;52.198;20.908;2022-11-25T07:04:42;100.90;;;36.10;;
21162;SDS011;10739;52.198;20.908;2022-11-25T07:07:09;101.07;;;35.40;;
21162;SDS011;10739;52.198;20.908;2022-11-25T07:09:35;85.30;;;31.27;;
21162;SDS011;10739;52.198;20.908;2022-11-25T07:12:01;96.70;;;33.30;;
21162;SDS011;10739;52.198;20.908;2022-11-25T07:14:30;83.85;;;30.75;;
21162;SDS011;10739;52.198;20.908;2022-11-25T07:16:56;89.43;;;31.17;;
21162;SDS011;10739;52.198;20.908;2022-11-25T07:19:23;98.25;;;32.67;;
21162;SDS011;10739;52.198;20.908;2022-11-25T07:21:49;86.47;;;31.48;;
21162;SDS011;10739;52.198;20.908;2022-11-25T07:24:15;102.18;;;32.78;;
21162;SDS011;10739;52.198;20.908;2022-11-25T07:26:43;105.40;;;34.15;;
21162;SDS011;10739;52.198;20.908;2022-11-25T07:29:11;99.25;;;34.03;;
21162;SDS011;10739;52.198;20.908;2022-11-25T07:31:40;99.25;;;33.67;;
21162;SDS011;10739;52.198;20.908;2022-11-25T07:34:13;91.55;;;33.03;;
21162;SDS011;10739;52.198;20.908;2022-11-25T07:36:44;92.18;;;33.65;;
21162;SDS011;10739;52.198;20.908;2022-11-25T07:42:54;99.50;;;33.25;;
21162;SDS011;10739;52.198;20.908;2022-11-25T07:45:20;96.43;;;34.80;;
21162;SDS011;10739;52.198;20.908;2022-11-25T07:47:48;100.20;;;35.20;;
21162;SDS011;10739;52.198;20.908;2022-11-25T07:50:15;102.25;;;34.78;;
21162;SDS011;10739;52.198;20.908;2022-11-25T07:52:41;103.82;;;36.05;;
21162;SDS011;10739;52.198;20.908;2022-11-25T07:55:07;103.50;;;37.30;;
21162;SDS011;10739;52.198;20.908;2022-11-25T07:57:33;98.82;;;35.30;;
21162;SDS011;10739;52.198;20.908;2022-11-25T08:00:00;120.07;;;41.58;;
21162;SDS011;10739;52.198;20.908;2022-11-25T08:02:27;110.47;;;40.90;;
21162;SDS011;10739;52.198;20.908;2022-11-25T08:04:53;128.98;;;43.03;;
21162;SDS011;10739;52.198;20.908;2022-11-25T08:07:19;116.32;;;40.10;;
21162;SDS011;10739;52.198;20.908;2022-11-25T08:09:45;104.57;;;39.13;;
21162;SDS011;10739;52.198;20.908;2022-11-25T08:12:11;113.38;;;37.85;;
21162;SDS011;10739;52.198;20.908;2022-11-25T08:14:37;108.28;;;36.72;;
21162;SDS011;10739;52.198;20.908;2022-11-25T08:17:03;105.13;;;36.85;;
21162;SDS011;10739;52.198;20.908;2022-11-25T08:19:30;104.18;;;37.33;;
21162;SDS011;10739;52.198;20.908;2022-11-25T08:21:58;100.13;;;35.85;;
21162;SDS011;10739;52.198;20.908;2022-11-25T08:24:24;105.05;;;36.70;;
21162;SDS011;10739;52.198;20.908;2022-11-25T08:26:50;119.00;;;37.65;;
21162;SDS011;10739;52.198;20.908;2022-11-25T08:29:18;110.47;;;35.88;;
21162;SDS011;10739;52.198;20.908;2022-11-25T08:31:45;113.28;;;36.60;;
21162;SDS011;10739;52.198;20.908;2022-11-25T08:34:15;124.07;;;37.05;;
21162;SDS011;10739;52.198;20.908;2022-11-25T08:36:48;113.50;;;37.83;;
21162;SDS011;10739;52.198;20.908;2022-11-25T08:39:14;97.47;;;35.50;;
21162;SDS011;10739;52.198;20.908;2022-11-25T08:41:42;115.03;;;36.05;;
21162;SDS011;10739;52.198;20.908;2022-11-25T08:44:09;117.95;;;38.42;;
21162;SDS011;10739;52.198;20.908;2022-11-25T08:46:37;109.38;;;36.92;;
21162;SDS011;10739;52.198;20.908;2022-11-25T08:49:05;114.03;;;38.90;;
21162;SDS011;10739;52.198;20.908;2022-11-25T08:51:36;108.55;;;37.25;;
21162;SDS011;10739;52.198;20.908;2022-11-25T08:54:04;107.60;;;37.55;;
21162;SDS011;10739;52.198;20.908;2022-11-25T08:56:32;119.75;;;37.70;;
21162;SDS011;10739;52.198;20.908;2022-11-25T08:58:59;113.72;;;38.88;;
21162;SDS011;10739;52.198;20.908;2022-11-25T09:01:25;114.82;;;41.63;;
21162;SDS011;10739;52.198;20.908;2022-11-25T09:03:52;110.15;;;38.80;;
21162;SDS011;10739;52.198;20.908;2022-11-25T09:06:21;112.10;;;36.75;;
21162;SDS011;10739;52.198;20.908;2022-11-25T09:08:49;116.55;;;37.45;;
21162;SDS011;10739;52.198;20.908;2022-11-25T09:11:15;115.03;;;38.28;;
21162;SDS011;10739;52.198;20.908;2022-11-25T09:13:42;115.85;;;39.63;;
21162;SDS011;10739;52.198;20.908;2022-11-25T09:16:08;107.05;;;38.03;;
21162;SDS011;10739;52.198;20.908;2022-11-25T09:18:34;109.55;;;38.08;;
21162;SDS011;10739;52.198;20.908;2022-11-25T09:21:05;102.20;;;38.13;;
21162;SDS011;10739;52.198;20.908;2022-11-25T09:23:34;116.18;;;38.83;;
21162;SDS011;10739;52.198;20.908;2022-11-25T09:26:03;113.97;;;39.22;;
21162;SDS011;10739;52.198;20.908;2022-11-25T09:28:30;96.25;;;36.08;;
21162;SDS011;10739;52.198;20.908;2022-11-25T09:30:57;90.72;;;35.75;;
21162;SDS011;10739;52.198;20.908;2022-11-25T09:33:23;96.10;;;35.85;;
21162;SDS011;10739;52.198;20.908;2022-11-25T09:35:52;95.40;;;36.20;;
21162;SDS011;10739;52.198;20.908;2022-11-25T09:38:20;78.40;;;33.13;;
21162;SDS011;10739;52.198;20.908;2022-11-25T09:49:42;82.30;;;32.90;;
21162;SDS011;10739;52.198;20.908;2022-11-25T09:52:47;90.13;;;33.78;;
21162;SDS011;10739;52.198;20.908;2022-11-25T09:55:32;84.90;;;34.10;;
21162;SDS011;10739;52.198;20.908;2022-11-25T09:58:29;82.43;;;31.35;;
21162;SDS011;10739;52.198;20.908;2022-11-25T10:01:06;88.95;;;32.97;;
21162;SDS011;10739;52.198;20.908;2022-11-25T10:03:46;87.43;;;33.17;;
21162;SDS011;10739;52.198;20.908;2022-11-25T10:06:22;94.85;;;33.88;;
21162;SDS011;10739;52.198;20.908;2022-11-25T10:09:02;98.30;;;34.55;;
21162;SDS011;10739;52.198;20.908;2022-11-25T10:17:14;72.60;;;29.73;;
21162;SDS011;10739;52.198;20.908;2022-11-25T10:20:39;70.90;;;28.53;;
21162;SDS011;10739;52.198;20.908;2022-11-25T10:23:11;73.85;;;29.25;;
21162;SDS011;10739;52.198;20.908;2022-11-25T10:25:47;81.38;;;31.45;;
21162;SDS011;10739;52.198;20.908;2022-11-25T10:31:02;77.43;;;30.48;;
21162;SDS011;10739;52.198;20.908;2022-11-25T10:36:17;81.32;;;30.90;;
21162;SDS011;10739;52.198;20.908;2022-11-25T10:41:18;78.75;;;29.52;;
21162;SDS011;10739;52.198;20.908;2022-11-25T10:43:55;77.60;;;29.95;;
21162;SDS011;10739;52.198;20.908;2022-11-25T10:51:38;75.88;;;29.88;;
21162;SDS011;10739;52.198;20.908;2022-11-25T10:56:48;74.07;;;31.00;;
21162;SDS011;10739;52.198;20.908;2022-11-25T10:59:30;85.82;;;31.55;;
21162;SDS011;10739;52.198;20.908;2022-11-25T11:04:56;76.32;;;31.10;;
21162;SDS011;10739;52.198;20.908;2022-11-25T11:07:38;74.75;;;29.10;;
21162;SDS011;10739;52.198;20.908;2022-11-25T11:10:19;78.18;;;29.80;;
21162;SDS011;10739;52.198;20.908;2022-11-25T11:12:59;76.90;;;30.17;;
21162;SDS011;10739;52.198;20.908;2022-11-25T11:15:32;79.25;;;31.27;;
21162;SDS011;10739;52.198;20.908;2022-11-25T11:18:25;72.32;;;30.08;;
21162;SDS011;10739;52.198;20.908;2022-11-25T11:20:55;65.97;;;27.90;;
21162;SDS011;10739;52.198;20.908;2022-11-25T11:23:25;77.40;;;30.88;;
21162;SDS011;10739;52.198;20.908;2022-11-25T11:26:00;76.22;;;30.88;;
21162;SDS011;10739;52.198;20.908;2022-11-25T11:31:04;69.75;;;30.45;;
21162;SDS011;10739;52.198;20.908;2022-11-25T11:48:10;70.68;;;30.15;;
21162;SDS011;10739;52.198;20.908;2022-11-25T11:51:06;69.13;;;29.25;;
21162;SDS011;10739;52.198;20.908;2022-11-25T11:54:34;72.43;;;29.65;;
21162;SDS011;10739;52.198;20.908;2022-11-25T11:57:01;78.65;;;32.20;;
21162;SDS011;10739;52.198;20.908;2022-11-25T11:59:47;80.45;;;32.97;;
21162;SDS011;10739;52.198;20.908;2022-11-25T12:05:35;89.03;;;34.22;;
21162;SDS011;10739;52.198;20.908;2022-11-25T12:08:08;83.70;;;33.80;;
21162;SDS011;10739;52.198;20.908;2022-11-25T12:11:09;90.60;;;33.00;;
21162;SDS011;10739;52.198;20.908;2022-11-25T12:16:39;90.45;;;34.50;;
21162;SDS011;10739;52.198;20.908;2022-11-25T12:19:24;88.63;;;34.20;;
21162;SDS011;10739;52.198;20.908;2022-11-25T12:22:18;95.50;;;36.50;;
21162;SDS011;10739;52.198;20.908;2022-11-25T12:27:48;92.88;;;35.65;;
21162;SDS011;10739;52.198;20.908;2022-11-25T12:30:40;97.60;;;36.50;;
21162;SDS011;10739;52.198;20.908;2022-11-25T12:33:58;101.88;;;36.20;;
21162;SDS011;10739;52.198;20.908;2022-11-25T12:36:34;95.43;;;35.05;;
21162;SDS011;10739;52.198;20.908;2022-11-25T12:39:10;101.18;;;37.15;;
21162;SDS011;10739;52.198;20.908;2022-11-25T12:42:11;90.75;;;34.80;;
21162;SDS011;10739;52.198;20.908;2022-11-25T12:44:51;106.28;;;36.25;;
21162;SDS011;10739;52.198;20.908;2022-11-25T12:47:28;100.03;;;35.13;;
21162;SDS011;10739;52.198;20.908;2022-11-25T12:49:55;103.72;;;36.83;;
21162;SDS011;10739;52.198;20.908;2022-11-25T12:52:29;93.90;;;37.03;;
21162;SDS011;10739;52.198;20.908;2022-11-25T13:17:44;100.45;;;39.17;;
21162;SDS011;10739;52.198;20.908;2022-11-25T13:25:29;103.55;;;40.20;;
21162;SDS011;10739;52.198;20.908;2022-11-25T13:36:20;106.65;;;38.30;;
21162;SDS011;10739;52.198;20.908;2022-11-25T13:44:05;97.10;;;41.05;;
21162;SDS011;10739;52.198;20.908;2022-11-25T13:46:46;101.65;;;40.03;;
21162;SDS011;10739;52.198;20.908;2022-11-25T13:49:31;97.45;;;40.60;;
21162;SDS011;10739;52.198;20.908;2022-11-25T13:54:44;100.00;;;40.10;;
21162;SDS011;10739;52.198;20.908;2022-11-25T13:59:59;103.25;;;39.70;;
21162;SDS011;10739;52.198;20.908;2022-11-25T14:02:42;103.78;;;40.88;;
21162;SDS011;10739;52.198;20.908;2022-11-25T14:20:20;97.72;;;40.05;;
21162;SDS011;10739;52.198;20.908;2022-11-25T14:23:10;99.35;;;41.67;;
21162;SDS011;10739;52.198;20.908;2022-11-25T14:26:17;75.38;;;30.88;;
21162;SDS011;10739;52.198;20.908;2022-11-25T14:29:20;99.25;;;39.50;;
21162;SDS011;10739;52.198;20.908;2022-11-25T14:32:13;104.47;;;41.53;;
21162;SDS011;10739;52.198;20.908;2022-11-25T14:35:02;97.82;;;39.13;;
21162;SDS011;10739;52.198;20.908;2022-11-25T14:37:55;100.25;;;39.58;;
21162;SDS011;10739;52.198;20.908;2022-11-25T14:40:50;95.82;;;39.42;;
21162;SDS011;10739;52.198;20.908;2022-11-25T14:43:24;92.40;;;38.67;;
21162;SDS011;10739;52.198;20.908;2022-11-25T14:46:09;97.50;;;39.83;;
21162;SDS011;10739;52.198;20.908;2022-11-25T14:48:40;93.35;;;39.75;;
21162;SDS011;10739;52.198;20.908;2022-11-25T14:51:08;107.30;;;40.97;;
21162;SDS011;10739;52.198;20.908;2022-11-25T14:53:41;101.50;;;43.53;;
21162;SDS011;10739;52.198;20.908;2022-11-25T14:56:11;99.90;;;39.67;;
21162;SDS011;10739;52.198;20.908;2022-11-25T14:58:44;101.07;;;41.33;;
21162;SDS011;10739;52.198;20.908;2022-11-25T15:01:24;95.90;;;40.75;;
21162;SDS011;10739;52.198;20.908;2022-11-25T15:04:00;98.97;;;40.47;;
21162;SDS011;10739;52.198;20.908;2022-11-25T15:06:38;93.45;;;40.80;;
21162;SDS011;10739;52.198;20.908;2022-11-25T15:09:16;103.30;;;43.92;;
21162;SDS011;10739;52.198;20.908;2022-11-25T15:11:50;83.03;;;32.67;;
21162;SDS011;10739;52.198;20.908;2022-11-25T15:14:41;95.47;;;41.72;;
21162;SDS011;10739;52.198;20.908;2022-11-25T15:17:30;107.82;;;42.85;;
21162;SDS011;10739;52.198;20.908;2022-11-25T15:20:11;99.40;;;41.47;;
21162;SDS011;10739;52.198;20.908;2022-11-25T15:22:48;109.18;;;45.55;;
21162;SDS011;10739;52.198;20.908;2022-11-25T15:25:17;110.22;;;44.13;;
21162;SDS011;10739;52.198;20.908;2022-11-25T15:27:45;105.85;;;44.58;;
21162;SDS011;10739;52.198;20.908;2022-11-25T15:30:19;108.20;;;42.97;;
21162;SDS011;10739;52.198;20.908;2022-11-25T15:32:47;102.07;;;43.70;;
21162;SDS011;10739;52.198;20.908;2022-11-25T15:35:19;102.00;;;44.05;;
21162;SDS011;10739;52.198;20.908;2022-11-25T15:37:49;99.05;;;42.90;;
21162;SDS011;10739;52.198;20.908;2022-11-25T15:43:27;103.63;;;44.70;;
21162;SDS011;10739;52.198;20.908;2022-11-25T15:45:58;99.32;;;43.13;;
21162;SDS011;10739;52.198;20.908;2022-11-25T15:48:45;103.18;;;44.95;;
21162;SDS011;10739;52.198;20.908;2022-11-25T15:54:04;99.45;;;42.25;;
21162;SDS011;10739;52.198;20.908;2022-11-25T15:56:38;104.00;;;45.63;;
21162;SDS011;10739;52.198;20.908;2022-11-25T16:15:50;99.78;;;44.58;;
21162;SDS011;10739;52.198;20.908;2022-11-25T16:21:23;108.65;;;44.25;;
21162;SDS011;10739;52.198;20.908;2022-11-25T16:26:37;108.28;;;46.22;;
21162;SDS011;10739;52.198;20.908;2022-11-25T16:32:08;106.90;;;43.95;;
21162;SDS011;10739;52.198;20.908;2022-11-25T16:34:40;107.13;;;45.72;;
21162;SDS011;10739;52.198;20.908;2022-11-25T16:37:07;107.07;;;45.67;;
21162;SDS011;10739;52.198;20.908;2022-11-25T16:39:33;112.80;;;46.83;;
21162;SDS011;10739;52.198;20.908;2022-11-25T16:42:02;108.68;;;46.75;;
21162;SDS011;10739;52.198;20.908;2022-11-25T16:44:29;105.70;;;45.20;;
21162;SDS011;10739;52.198;20.908;2022-11-25T16:46:59;114.47;;;46.58;;
21162;SDS011;10739;52.198;20.908;2022-11-25T16:49:25;113.93;;;45.80;;
21162;SDS011;10739;52.198;20.908;2022-11-25T16:51:55;120.40;;;48.83;;
21162;SDS011;10739;52.198;20.908;2022-11-25T16:54:21;123.05;;;47.88;;
21162;SDS011;10739;52.198;20.908;2022-11-25T16:56:49;125.70;;;49.25;;
21162;SDS011;10739;52.198;20.908;2022-11-25T16:59:19;137.93;;;49.65;;
21162;SDS011;10739;52.198;20.908;2022-11-25T17:02:08;133.73;;;50.47;;
21162;SDS011;10739;52.198;20.908;2022-11-25T17:04:43;131.80;;;50.13;;
21162;SDS011;10739;52.198;20.908;2022-11-25T17:07:13;118.75;;;49.63;;
21162;SDS011;10739;52.198;20.908;2022-11-25T17:09:42;132.38;;;51.15;;
21162;SDS011;10739;52.198;20.908;2022-11-25T17:12:11;137.20;;;51.00;;
21162;SDS011;10739;52.198;20.908;2022-11-25T17:14:44;143.43;;;52.42;;
21162;SDS011;10739;52.198;20.908;2022-11-25T17:17:15;135.52;;;50.88;;
21162;SDS011;10739;52.198;20.908;2022-11-25T17:19:49;134.93;;;51.35;;
21162;SDS011;10739;52.198;20.908;2022-11-25T17:22:17;155.05;;;55.00;;